createdAt,value
2019-02-16T00:00:03.930Z,964.00
2019-02-16T00:01:03.958Z,964.05
2019-02-16T00:02:03.910Z,964.01
2019-02-16T00:03:03.903Z,964.04
2019-02-16T00:04:03.883Z,963.99
2019-02-16T00:05:03.868Z,964.02
2019-02-16T00:06:03.864Z,963.98
2019-02-16T00:07:03.889Z,964.01
2019-02-16T00:08:03.836Z,963.98
2019-02-16T00:09:03.834Z,963.93
2019-02-16T00:10:03.821Z,963.95
2019-02-16T00:11:04.534Z,963.94
2019-02-16T00:12:03.807Z,963.92
2019-02-16T00:13:03.802Z,963.91
2019-02-16T00:14:03.771Z,963.90
2019-02-16T00:15:03.757Z,963.90
2019-02-16T00:16:03.748Z,963.87
2019-02-16T00:17:03.740Z,963.92
2019-02-16T00:18:03.764Z,963.93
2019-02-16T00:19:03.736Z,963.89
2019-02-16T00:20:03.701Z,963.84
2019-02-16T00:21:04.437Z,963.89
2019-02-16T00:22:03.687Z,963.85
2019-02-16T00:23:03.689Z,963.88
2019-02-16T00:24:03.655Z,963.87
2019-02-16T00:25:03.667Z,963.88
2019-02-16T00:26:03.634Z,963.86
2019-02-16T00:27:03.630Z,963.81
2019-02-16T00:28:03.696Z,963.84
2019-02-16T00:29:03.604Z,963.82
2019-02-16T00:30:03.599Z,963.82
2019-02-16T00:31:03.609Z,963.82
2019-02-16T00:32:03.573Z,963.83
2019-02-16T00:33:03.562Z,963.81
2019-02-16T00:34:03.566Z,963.83
2019-02-16T00:35:03.545Z,963.83
2019-02-16T00:36:03.531Z,963.81
2019-02-16T00:37:03.541Z,963.81
2019-02-16T00:38:03.502Z,963.83
2019-02-16T00:39:03.522Z,963.87
2019-02-16T00:40:03.479Z,963.80
2019-02-16T00:41:03.485Z,963.82
2019-02-16T00:42:03.460Z,963.83
2019-02-16T00:43:03.495Z,963.82
2019-02-16T00:44:03.446Z,963.82
2019-02-16T00:45:03.441Z,963.78
2019-02-16T00:46:03.421Z,963.80
2019-02-16T00:47:03.404Z,963.75
2019-02-16T00:48:03.402Z,963.79
2019-02-16T00:49:03.402Z,963.76
2019-02-16T00:50:03.395Z,963.76
2019-02-16T00:51:03.426Z,963.79
2019-02-16T00:52:03.412Z,963.75
2019-02-16T00:53:03.346Z,963.73
2019-02-16T00:54:03.327Z,963.66
2019-02-16T00:55:03.351Z,963.69
2019-02-16T00:56:03.398Z,963.68
2019-02-16T00:57:03.296Z,963.68
2019-02-16T00:58:03.291Z,963.66
2019-02-16T00:59:03.276Z,963.67
2019-02-16T01:00:03.264Z,963.66
2019-02-16T01:01:03.287Z,963.64
2019-02-16T01:02:03.242Z,963.58
2019-02-16T01:03:03.229Z,963.59
2019-02-16T01:04:03.229Z,963.56
2019-02-16T01:05:03.210Z,963.58
2019-02-16T01:06:03.219Z,963.60
2019-02-16T01:07:03.196Z,963.58
2019-02-16T01:08:03.172Z,963.58
2019-02-16T01:09:03.158Z,963.57
2019-02-16T01:10:03.154Z,963.52
2019-02-16T01:11:03.141Z,963.49
2019-02-16T01:12:03.148Z,963.52
2019-02-16T01:13:03.132Z,963.47
2019-02-16T01:14:03.109Z,963.52
2019-02-16T01:15:03.100Z,963.47
2019-02-16T01:16:03.089Z,963.45
2019-02-16T01:17:03.121Z,963.44
2019-02-16T01:18:03.081Z,963.41
2019-02-16T01:19:03.072Z,963.41
2019-02-16T01:20:03.042Z,963.39
2019-02-16T01:21:03.037Z,963.36
2019-02-16T01:22:03.033Z,963.37
2019-02-16T01:23:03.033Z,963.39
2019-02-16T01:24:02.995Z,963.37
2019-02-16T01:25:03.000Z,963.42
2019-02-16T01:26:02.969Z,963.39
2019-02-16T01:27:02.963Z,963.35
2019-02-16T01:28:02.960Z,963.31
2019-02-16T01:29:02.951Z,963.33
2019-02-16T01:30:02.934Z,963.29
2019-02-16T01:31:02.940Z,963.32
2019-02-16T01:32:02.904Z,963.29
2019-02-16T01:33:02.897Z,963.29
2019-02-16T01:34:02.911Z,963.31
2019-02-16T01:35:02.876Z,963.25
2019-02-16T01:36:02.863Z,963.25
2019-02-16T01:37:02.863Z,963.23
2019-02-16T01:38:02.843Z,963.27
2019-02-16T01:39:02.833Z,963.21
2019-02-16T01:40:02.852Z,963.15
2019-02-16T01:41:02.815Z,963.15
2019-02-16T01:42:02.794Z,963.18
2019-02-16T01:43:02.807Z,963.16
2019-02-16T01:44:02.825Z,963.13
2019-02-16T01:45:02.770Z,963.14
2019-02-16T01:46:02.783Z,963.14
2019-02-16T01:47:02.746Z,963.10
2019-02-16T01:48:02.734Z,963.12
2019-02-16T01:49:02.749Z,963.14
2019-02-16T01:50:02.719Z,963.07
2019-02-16T01:51:02.729Z,963.09
2019-02-16T01:52:02.692Z,963.06
2019-02-16T01:53:02.671Z,963.05
2019-02-16T01:54:02.665Z,963.05
2019-02-16T01:55:02.674Z,962.99
2019-02-16T01:56:02.642Z,962.98
2019-02-16T01:57:02.648Z,962.96
2019-02-16T01:58:02.630Z,962.97
2019-02-16T01:59:02.612Z,962.95
2019-02-16T02:00:02.609Z,962.93
2019-02-16T02:01:02.616Z,962.98
2019-02-16T02:02:02.626Z,962.91
2019-02-16T02:03:02.566Z,962.93
2019-02-16T02:04:02.560Z,962.92
2019-02-16T02:05:02.548Z,962.98
2019-02-16T02:06:02.560Z,962.94
2019-02-16T02:07:02.518Z,962.96
2019-02-16T02:08:02.524Z,963.00
2019-02-16T02:09:02.503Z,963.00
2019-02-16T02:10:02.495Z,962.98
2019-02-16T02:11:02.478Z,963.00
2019-02-16T02:12:02.511Z,962.97
2019-02-16T02:13:02.476Z,962.96
2019-02-16T02:14:02.443Z,962.94
2019-02-16T02:15:02.471Z,962.91
2019-02-16T02:16:02.426Z,962.88
2019-02-16T02:17:03.024Z,962.93
2019-02-16T02:18:02.405Z,962.87
2019-02-16T02:19:02.394Z,962.87
2019-02-16T02:20:02.377Z,962.86
2019-02-16T02:21:02.394Z,962.88
2019-02-16T02:22:02.364Z,962.88
2019-02-16T02:23:02.369Z,962.84
2019-02-16T02:24:02.342Z,962.90
2019-02-16T02:25:02.329Z,962.85
2019-02-16T02:26:02.313Z,962.85
2019-02-16T02:27:02.329Z,962.84
2019-02-16T02:28:02.294Z,962.81
2019-02-16T02:29:02.313Z,962.83
2019-02-16T02:30:02.273Z,962.84
2019-02-16T02:31:02.261Z,962.75
2019-02-16T02:32:02.266Z,962.78
2019-02-16T02:33:02.248Z,962.74
2019-02-16T02:34:02.226Z,962.72
2019-02-16T02:35:02.233Z,962.74
2019-02-16T02:36:02.200Z,962.69
2019-02-16T02:37:02.196Z,962.72
2019-02-16T02:38:02.209Z,962.70
2019-02-16T02:39:02.184Z,962.66
2019-02-16T02:40:02.164Z,962.66
2019-02-16T02:41:02.166Z,962.66
2019-02-16T02:42:02.136Z,962.65
2019-02-16T02:43:02.139Z,962.64
2019-02-16T02:44:02.132Z,962.67
2019-02-16T02:45:02.111Z,962.63
2019-02-16T02:46:02.101Z,962.61
2019-02-16T02:47:02.112Z,962.63
2019-02-16T02:48:02.070Z,962.64
2019-02-16T02:49:02.070Z,962.64
2019-02-16T02:50:02.059Z,962.64
2019-02-16T02:51:02.038Z,962.60
2019-02-16T02:52:02.032Z,962.60
2019-02-16T02:53:02.037Z,962.58
2019-02-16T02:54:02.038Z,962.61
2019-02-16T02:55:02.001Z,962.56
2019-02-16T02:56:01.984Z,962.60
2019-02-16T02:57:01.970Z,962.54
2019-02-16T02:58:01.987Z,962.54
2019-02-16T02:59:01.984Z,962.54
2019-02-16T03:00:01.956Z,962.52
2019-02-16T03:01:01.931Z,962.54
2019-02-16T03:02:01.914Z,962.53
2019-02-16T03:03:01.911Z,962.46
2019-02-16T03:04:01.900Z,962.49
2019-02-16T03:05:01.926Z,962.50
2019-02-16T03:06:01.935Z,962.52
2019-02-16T03:07:01.865Z,962.49
2019-02-16T03:08:01.851Z,962.45
2019-02-16T03:09:01.847Z,962.50
2019-02-16T03:10:01.879Z,962.49
2019-02-16T03:11:01.837Z,962.42
2019-02-16T03:12:01.807Z,962.48
2019-02-16T03:13:01.797Z,962.43
2019-02-16T03:14:01.787Z,962.47
2019-02-16T03:15:01.779Z,962.41
2019-02-16T03:16:01.777Z,962.42
2019-02-16T03:17:01.775Z,962.46
2019-02-16T03:18:01.742Z,962.44
2019-02-16T03:19:01.729Z,962.41
2019-02-16T03:20:01.726Z,962.38
2019-02-16T03:21:01.737Z,962.43
2019-02-16T03:22:03.279Z,962.41
2019-02-16T03:23:01.710Z,962.40
2019-02-16T03:24:01.677Z,962.41
2019-02-16T03:25:01.672Z,962.42
2019-02-16T03:26:01.661Z,962.38
2019-02-16T03:27:01.658Z,962.41
2019-02-16T03:28:01.642Z,962.39
2019-02-16T03:29:01.635Z,962.39
2019-02-16T03:30:01.614Z,962.40
2019-02-16T03:31:01.624Z,962.42
2019-02-16T03:32:01.625Z,962.38
2019-02-16T03:33:01.582Z,962.42
2019-02-16T03:34:01.595Z,962.42
2019-02-16T03:35:01.589Z,962.42
2019-02-16T03:36:01.552Z,962.43
2019-02-16T03:37:01.531Z,962.34
2019-02-16T03:38:01.586Z,962.40
2019-02-16T03:39:01.512Z,962.42
2019-02-16T03:40:01.511Z,962.38
2019-02-16T03:41:01.512Z,962.37
2019-02-16T03:42:01.477Z,962.37
2019-02-16T03:43:01.487Z,962.41
2019-02-16T03:44:01.500Z,962.37
2019-02-16T03:45:01.448Z,962.34
2019-02-16T03:46:01.428Z,962.34
2019-02-16T03:47:01.441Z,962.29
2019-02-16T03:48:01.413Z,962.35
2019-02-16T03:49:01.415Z,962.32
2019-02-16T03:50:01.402Z,962.31
2019-02-16T03:51:01.379Z,962.35
2019-02-16T03:52:01.372Z,962.32
2019-02-16T03:53:01.382Z,962.34
2019-02-16T03:54:01.364Z,962.32
2019-02-16T03:55:01.335Z,962.37
2019-02-16T03:56:01.324Z,962.39
2019-02-16T03:57:01.314Z,962.32
2019-02-16T03:58:01.293Z,962.37
2019-02-16T03:59:01.342Z,962.36
2019-02-16T04:00:01.269Z,962.32
2019-02-16T04:01:01.272Z,962.33
2019-02-16T04:02:01.255Z,962.34
2019-02-16T04:03:01.245Z,962.30
2019-02-16T04:04:01.242Z,962.34
2019-02-16T04:05:01.257Z,962.32
2019-02-16T04:06:01.222Z,962.33
2019-02-16T04:07:01.199Z,962.31
2019-02-16T04:08:01.194Z,962.30
2019-02-16T04:09:01.178Z,962.32
2019-02-16T04:10:01.190Z,962.31
2019-02-16T04:11:01.173Z,962.26
2019-02-16T04:12:01.171Z,962.26
2019-02-16T04:13:01.129Z,962.26
2019-02-16T04:14:01.129Z,962.30
2019-02-16T04:15:01.129Z,962.29
2019-02-16T04:16:01.111Z,962.27
2019-02-16T04:17:01.119Z,962.28
2019-02-16T04:18:01.093Z,962.30
2019-02-16T04:19:01.073Z,962.31
2019-02-16T04:20:01.068Z,962.29
2019-02-16T04:21:01.074Z,962.28
2019-02-16T04:22:01.038Z,962.20
2019-02-16T04:23:01.048Z,962.27
2019-02-16T04:24:01.025Z,962.25
2019-02-16T04:25:01.006Z,962.25
2019-02-16T04:26:00.996Z,962.22
2019-02-16T04:27:01.021Z,962.18
2019-02-16T04:28:00.971Z,962.21
2019-02-16T04:29:00.974Z,962.23
2019-02-16T04:30:00.949Z,962.18
2019-02-16T04:31:00.939Z,962.15
2019-02-16T04:32:00.924Z,962.12
2019-02-16T04:33:00.927Z,962.12
2019-02-16T04:34:00.942Z,962.13
2019-02-16T04:35:00.912Z,962.11
2019-02-16T04:36:00.887Z,962.11
2019-02-16T04:37:00.874Z,962.09
2019-02-16T04:38:00.875Z,962.08
2019-02-16T04:39:00.846Z,962.09
2019-02-16T04:40:00.838Z,962.10
2019-02-16T04:41:00.851Z,962.12
2019-02-16T04:42:00.822Z,962.06
2019-02-16T04:43:00.930Z,962.09
2019-02-16T04:44:00.801Z,962.05
2019-02-16T04:45:00.785Z,962.04
2019-02-16T04:46:00.779Z,961.98
2019-02-16T04:47:00.782Z,961.97
2019-02-16T04:48:00.742Z,962.02
2019-02-16T04:49:00.754Z,961.99
2019-02-16T04:50:00.732Z,962.03
2019-02-16T04:51:00.729Z,962.00
2019-02-16T04:52:00.725Z,961.97
2019-02-16T04:53:00.724Z,961.98
2019-02-16T04:54:00.719Z,962.00
2019-02-16T04:55:00.672Z,962.02
2019-02-16T04:56:00.671Z,962.01
2019-02-16T04:57:00.730Z,961.96
2019-02-16T04:58:00.644Z,961.95
2019-02-16T04:59:00.659Z,961.97
2019-02-16T05:00:00.638Z,961.96
2019-02-16T05:01:00.608Z,961.94
2019-02-16T05:02:00.600Z,961.87
2019-02-16T05:03:00.591Z,961.84
2019-02-16T05:04:00.587Z,961.86
2019-02-16T05:05:00.613Z,961.86
2019-02-16T05:06:00.553Z,961.86
2019-02-16T05:07:00.549Z,961.91
2019-02-16T05:08:00.537Z,961.87
2019-02-16T05:09:00.525Z,961.89
2019-02-16T05:10:00.557Z,961.84
2019-02-16T05:11:00.494Z,961.89
2019-02-16T05:12:00.489Z,961.92
2019-02-16T05:13:00.496Z,961.88
2019-02-16T05:14:00.469Z,961.89
2019-02-16T05:15:00.461Z,961.89
2019-02-16T05:16:00.480Z,961.87
2019-02-16T05:17:01.021Z,961.85
2019-02-16T05:18:00.426Z,961.83
2019-02-16T05:19:00.411Z,961.84
2019-02-16T05:20:00.417Z,961.82
2019-02-16T05:21:00.413Z,961.81
2019-02-16T05:22:00.378Z,961.80
2019-02-16T05:23:00.364Z,961.76
2019-02-16T05:24:00.357Z,961.78
2019-02-16T05:25:00.517Z,961.77
2019-02-16T05:26:00.358Z,961.78
2019-02-16T05:27:01.021Z,961.77
2019-02-16T05:28:00.314Z,961.82
2019-02-16T05:29:00.338Z,961.80
2019-02-16T05:30:00.322Z,961.83
2019-02-16T05:31:00.281Z,961.84
2019-02-16T05:32:00.309Z,961.77
2019-02-16T05:33:00.256Z,961.80
2019-02-16T05:34:00.252Z,961.75
2019-02-16T05:35:00.291Z,961.74
2019-02-16T05:36:00.218Z,961.77
2019-02-16T05:37:00.237Z,961.72
2019-02-16T05:38:00.231Z,961.73
2019-02-16T05:39:00.195Z,961.73
2019-02-16T05:40:00.326Z,961.76
2019-02-16T05:41:00.171Z,961.81
2019-02-16T05:42:00.156Z,961.74
2019-02-16T05:43:09.733Z,961.74
2019-02-16T05:44:00.217Z,961.78
2019-02-16T05:45:00.374Z,961.76
2019-02-16T05:46:00.141Z,961.81
2019-02-16T05:47:00.125Z,961.75
2019-02-16T05:48:00.163Z,961.76
2019-02-16T05:49:00.084Z,961.82
2019-02-16T05:50:00.203Z,961.88
2019-02-16T05:51:00.098Z,961.84
2019-02-16T05:52:00.093Z,961.83
2019-02-16T05:53:00.067Z,961.82
2019-02-16T05:54:00.093Z,961.81
2019-02-16T05:55:00.041Z,961.85
2019-02-16T05:56:00.038Z,961.77
2019-02-16T05:56:59.993Z,961.85
2019-02-16T05:57:59.993Z,961.84
2019-02-16T05:58:59.983Z,961.81
2019-02-16T06:00:00.023Z,961.78
2019-02-16T06:00:59.971Z,961.82
2019-02-16T06:01:59.950Z,961.87
2019-02-16T06:02:59.957Z,961.83
2019-02-16T06:03:59.956Z,961.83
2019-02-16T06:04:59.963Z,961.80
2019-02-16T06:05:59.987Z,961.84
2019-02-16T06:06:59.915Z,961.85
2019-02-16T06:07:59.886Z,961.86
2019-02-16T06:08:59.896Z,961.84
2019-02-16T06:09:59.871Z,961.87
2019-02-16T06:10:59.877Z,961.83
2019-02-16T06:11:59.880Z,961.84
2019-02-16T06:12:59.865Z,961.81
2019-02-16T06:14:10.591Z,961.85
2019-02-16T06:14:59.876Z,961.81
2019-02-16T06:15:59.821Z,961.81
2019-02-16T06:16:59.806Z,961.83
2019-02-16T06:17:59.775Z,961.79
2019-02-16T06:18:59.759Z,961.79
2019-02-16T06:19:59.778Z,961.82
2019-02-16T06:21:01.768Z,961.85
2019-02-16T06:21:59.720Z,961.82
2019-02-16T06:23:04.415Z,961.83
2019-02-16T06:24:00.729Z,961.83
2019-02-16T06:25:00.590Z,961.82
2019-02-16T06:25:59.709Z,961.83
2019-02-16T06:26:59.712Z,961.79
2019-02-16T06:27:59.671Z,961.81
2019-02-16T06:28:59.695Z,961.83
2019-02-16T06:29:59.646Z,961.81
2019-02-16T06:30:59.672Z,961.85
2019-02-16T06:31:59.607Z,961.83
2019-02-16T06:32:59.654Z,961.76
2019-02-16T06:34:00.192Z,961.79
2019-02-16T06:35:00.106Z,961.82
2019-02-16T06:35:59.601Z,961.81
2019-02-16T06:36:59.572Z,961.85
2019-02-16T06:37:59.564Z,961.84
2019-02-16T06:38:59.572Z,961.81
2019-02-16T06:39:59.542Z,961.85
2019-02-16T06:40:59.530Z,961.83
2019-02-16T06:41:59.530Z,961.84
2019-02-16T06:42:59.495Z,961.87
2019-02-16T06:43:59.501Z,961.83
2019-02-16T06:44:59.472Z,961.80
2019-02-16T06:46:00.837Z,961.85
2019-02-16T06:46:59.464Z,961.85
2019-02-16T06:47:59.456Z,961.87
2019-02-16T06:48:59.483Z,961.82
2019-02-16T06:49:59.423Z,961.91
2019-02-16T06:50:59.413Z,961.88
2019-02-16T06:51:59.392Z,961.91
2019-02-16T06:52:59.398Z,961.91
2019-02-16T06:53:59.413Z,961.90
2019-02-16T06:54:59.402Z,961.92
2019-02-16T06:55:59.376Z,961.89
2019-02-16T06:56:59.351Z,961.97
2019-02-16T06:57:59.342Z,961.90
2019-02-16T06:58:59.352Z,961.93
2019-02-16T06:59:59.323Z,961.93
2019-02-16T07:00:59.303Z,961.89
2019-02-16T07:02:08.755Z,961.92
2019-02-16T07:02:59.312Z,961.95
2019-02-16T07:03:59.304Z,961.91
2019-02-16T07:04:59.328Z,961.92
2019-02-16T07:05:59.282Z,961.95
2019-02-16T07:06:59.285Z,961.93
2019-02-16T07:07:59.242Z,961.93
2019-02-16T07:08:59.224Z,961.93
2019-02-16T07:09:59.203Z,961.92
2019-02-16T07:10:59.202Z,961.97
2019-02-16T07:11:59.236Z,961.94
2019-02-16T07:12:59.176Z,962.01
2019-02-16T07:13:59.165Z,961.98
2019-02-16T07:14:59.158Z,961.99
2019-02-16T07:15:59.157Z,962.00
2019-02-16T07:17:10.009Z,961.97
2019-02-16T07:17:59.153Z,961.98
2019-02-16T07:18:59.112Z,961.96
2019-02-16T07:20:10.001Z,961.94
2019-02-16T07:20:59.132Z,961.90
2019-02-16T07:21:59.119Z,961.90
2019-02-16T07:22:59.076Z,961.95
2019-02-16T07:23:59.075Z,961.92
2019-02-16T07:24:59.035Z,961.98
2019-02-16T07:25:59.056Z,961.92
2019-02-16T07:26:59.025Z,961.90
2019-02-16T07:27:59.026Z,961.90
2019-02-16T07:28:59.005Z,961.88
2019-02-16T07:29:58.975Z,961.93
2019-02-16T07:30:58.996Z,961.88
2019-02-16T07:31:58.952Z,961.90
2019-02-16T07:32:58.965Z,961.90
2019-02-16T07:33:58.958Z,961.91
2019-02-16T07:34:58.947Z,961.93
2019-02-16T07:35:58.918Z,961.93
2019-02-16T07:36:58.931Z,961.89
2019-02-16T07:37:58.897Z,961.91
2019-02-16T07:38:58.920Z,961.89
2019-02-16T07:39:58.877Z,961.89
2019-02-16T07:40:58.866Z,961.91
2019-02-16T07:41:58.857Z,961.91
2019-02-16T07:42:58.854Z,961.94
2019-02-16T07:43:58.884Z,961.96
2019-02-16T07:44:58.834Z,961.94
2019-02-16T07:45:58.818Z,961.94
2019-02-16T07:46:58.807Z,961.93
2019-02-16T07:47:58.793Z,961.93
2019-02-16T07:48:58.804Z,961.93
2019-02-16T07:49:58.770Z,961.89
2019-02-16T07:51:09.472Z,961.88
2019-02-16T07:51:58.752Z,961.88
2019-02-16T07:52:58.770Z,961.91
2019-02-16T07:53:58.742Z,961.91
2019-02-16T07:54:58.733Z,961.90
2019-02-16T07:55:58.701Z,961.89
2019-02-16T07:56:58.693Z,961.91
2019-02-16T07:57:58.715Z,961.91
2019-02-16T07:58:58.677Z,961.86
2019-02-16T07:59:58.652Z,961.88
2019-02-16T08:00:58.654Z,961.86
2019-02-16T08:01:58.629Z,961.91
2019-02-16T08:02:58.649Z,961.90
2019-02-16T08:03:58.604Z,961.85
2019-02-16T08:04:58.599Z,961.88
2019-02-16T08:05:58.608Z,961.84
2019-02-16T08:06:58.590Z,961.82
2019-02-16T08:07:58.571Z,961.84
2019-02-16T08:08:58.598Z,961.79
2019-02-16T08:09:58.562Z,961.79
2019-02-16T08:10:58.557Z,961.79
2019-02-16T08:11:58.552Z,961.83
2019-02-16T08:12:58.523Z,961.79
2019-02-16T08:13:58.528Z,961.74
2019-02-16T08:14:58.519Z,961.78
2019-02-16T08:15:58.516Z,961.80
2019-02-16T08:16:58.470Z,961.76
2019-02-16T08:17:58.968Z,961.75
2019-02-16T08:18:58.439Z,961.78
2019-02-16T08:19:58.436Z,961.77
2019-02-16T08:20:58.441Z,961.67
2019-02-16T08:21:58.404Z,961.69
2019-02-16T08:22:58.492Z,961.72
2019-02-16T08:23:58.406Z,961.68
2019-02-16T08:24:58.397Z,961.64
2019-02-16T08:25:59.271Z,961.68
2019-02-16T08:26:58.361Z,961.63
2019-02-16T08:27:58.352Z,961.67
2019-02-16T08:28:58.387Z,961.66
2019-02-16T08:29:58.372Z,961.66
2019-02-16T08:30:58.330Z,961.70
2019-02-16T08:31:58.307Z,961.68
2019-02-16T08:32:58.292Z,961.69
2019-02-16T08:33:58.277Z,961.67
2019-02-16T08:34:58.282Z,961.67
2019-02-16T08:35:58.243Z,961.69
2019-02-16T08:36:58.277Z,961.70
2019-02-16T08:37:58.224Z,961.70
2019-02-16T08:38:58.246Z,961.70
2019-02-16T08:39:58.232Z,961.69
2019-02-16T08:40:58.212Z,961.68
2019-02-16T08:41:58.201Z,961.68
2019-02-16T08:42:58.167Z,961.63
2019-02-16T08:43:58.714Z,961.69
2019-02-16T08:44:58.156Z,961.66
2019-02-16T08:45:58.159Z,961.65
2019-02-16T08:46:58.139Z,961.64
2019-02-16T08:47:58.134Z,961.62
2019-02-16T08:48:58.121Z,961.64
2019-02-16T08:49:58.098Z,961.64
2019-02-16T08:50:58.097Z,961.67
2019-02-16T08:51:58.113Z,961.68
2019-02-16T08:52:58.075Z,961.64
2019-02-16T08:53:58.064Z,961.63
2019-02-16T08:54:58.036Z,961.66
2019-02-16T08:55:58.035Z,961.64
2019-02-16T08:56:58.041Z,961.62
2019-02-16T08:57:58.050Z,961.66
2019-02-16T08:58:58.005Z,961.57
2019-02-16T08:59:58.001Z,961.61
2019-02-16T09:00:58.003Z,961.59
2019-02-16T09:01:57.959Z,961.55
2019-02-16T09:02:58.016Z,961.51
2019-02-16T09:03:57.954Z,961.53
2019-02-16T09:04:57.945Z,961.53
2019-02-16T09:05:57.949Z,961.54
2019-02-16T09:06:57.934Z,961.55
2019-02-16T09:07:57.922Z,961.52
2019-02-16T09:08:57.938Z,961.55
2019-02-16T09:09:57.886Z,961.57
2019-02-16T09:10:57.878Z,961.54
2019-02-16T09:11:57.900Z,961.50
2019-02-16T09:12:57.849Z,961.54
2019-02-16T09:13:57.868Z,961.47
2019-02-16T09:14:57.909Z,961.46
2019-02-16T09:15:57.816Z,961.52
2019-02-16T09:16:57.841Z,961.47
2019-02-16T09:17:57.824Z,961.49
2019-02-16T09:18:57.772Z,961.45
2019-02-16T09:19:57.809Z,961.44
2019-02-16T09:20:57.766Z,961.42
2019-02-16T09:21:57.774Z,961.45
2019-02-16T09:22:57.754Z,961.43
2019-02-16T09:23:59.437Z,961.44
2019-02-16T09:24:57.722Z,961.46
2019-02-16T09:25:57.722Z,961.43
2019-02-16T09:26:57.710Z,961.40
2019-02-16T09:27:57.683Z,961.41
2019-02-16T09:28:57.710Z,961.41
2019-02-16T09:29:57.661Z,961.41
2019-02-16T09:30:57.657Z,961.39
2019-02-16T09:31:57.697Z,961.44
2019-02-16T09:32:57.651Z,961.43
2019-02-16T09:33:57.631Z,961.43
2019-02-16T09:34:57.599Z,961.44
2019-02-16T09:35:57.590Z,961.43
2019-02-16T09:36:57.626Z,961.42
2019-02-16T09:37:57.591Z,961.48
2019-02-16T09:38:57.569Z,961.49
2019-02-16T09:39:57.562Z,961.44
2019-02-16T09:40:57.538Z,961.47
2019-02-16T09:41:57.576Z,961.42
2019-02-16T09:42:57.500Z,961.49
2019-02-16T09:43:57.516Z,961.44
2019-02-16T09:44:57.530Z,961.49
2019-02-16T09:45:57.481Z,961.42
2019-02-16T09:46:57.474Z,961.40
2019-02-16T09:47:57.472Z,961.43
2019-02-16T09:48:57.463Z,961.49
2019-02-16T09:49:57.452Z,961.45
2019-02-16T09:50:57.437Z,961.46
2019-02-16T09:51:57.426Z,961.46
2019-02-16T09:52:57.444Z,961.48
2019-02-16T09:53:57.412Z,961.48
2019-02-16T09:54:57.390Z,961.49
2019-02-16T09:55:57.414Z,961.48
2019-02-16T09:56:57.362Z,961.48
2019-02-16T09:57:57.354Z,961.47
2019-02-16T09:58:57.354Z,961.49
2019-02-16T09:59:57.344Z,961.47
2019-02-16T10:00:57.345Z,961.49
2019-02-16T10:01:57.286Z,961.48
2019-02-16T10:02:57.305Z,961.52
2019-02-16T10:03:57.298Z,961.50
2019-02-16T10:04:57.282Z,961.51
2019-02-16T10:05:57.254Z,961.49
2019-02-16T10:06:57.233Z,961.43
2019-02-16T10:07:57.242Z,961.44
2019-02-16T10:08:57.256Z,961.44
2019-02-16T10:09:57.252Z,961.44
2019-02-16T10:10:57.193Z,961.42
2019-02-16T10:11:57.205Z,961.49
2019-02-16T10:12:57.164Z,961.43
2019-02-16T10:13:57.177Z,961.49
2019-02-16T10:14:57.140Z,961.45
2019-02-16T10:15:57.193Z,961.48
2019-02-16T10:16:57.137Z,961.45
2019-02-16T10:17:57.124Z,961.47
2019-02-16T10:18:57.107Z,961.47
2019-02-16T10:19:57.123Z,961.47
2019-02-16T10:20:57.089Z,961.46
2019-02-16T10:21:57.124Z,961.47
2019-02-16T10:22:57.146Z,961.47
2019-02-16T10:23:57.049Z,961.44
2019-02-16T10:24:57.049Z,961.50
2019-02-16T10:25:57.052Z,961.51
2019-02-16T10:26:57.028Z,961.51
2019-02-16T10:27:57.075Z,961.48
2019-02-16T10:28:56.998Z,961.43
2019-02-16T10:29:56.995Z,961.50
2019-02-16T10:30:57.027Z,961.48
2019-02-16T10:31:56.994Z,961.48
2019-02-16T10:32:56.947Z,961.47
2019-02-16T10:33:56.952Z,961.44
2019-02-16T10:34:56.981Z,961.46
2019-02-16T10:35:56.961Z,961.47
2019-02-16T10:36:56.941Z,961.45
2019-02-16T10:37:56.910Z,961.47
2019-02-16T10:38:56.919Z,961.50
2019-02-16T10:39:56.885Z,961.44
2019-02-16T10:40:56.870Z,961.47
2019-02-16T10:41:56.867Z,961.46
2019-02-16T10:42:56.905Z,961.48
2019-02-16T10:43:56.835Z,961.50
2019-02-16T10:44:56.856Z,961.49
2019-02-16T10:45:56.836Z,961.48
2019-02-16T10:46:56.803Z,961.47
2019-02-16T10:47:56.810Z,961.51
2019-02-16T10:48:56.812Z,961.47
2019-02-16T10:49:56.768Z,961.52
2019-02-16T10:50:56.774Z,961.49
2019-02-16T10:51:56.753Z,961.51
2019-02-16T10:52:56.751Z,961.51
2019-02-16T10:53:56.748Z,961.51
2019-02-16T10:54:56.718Z,961.56
2019-02-16T10:55:56.736Z,961.51
2019-02-16T10:56:56.699Z,961.52
2019-02-16T10:57:56.683Z,961.50
2019-02-16T10:58:56.680Z,961.52
2019-02-16T10:59:56.649Z,961.51
2019-02-16T11:00:56.683Z,961.52
2019-02-16T11:01:56.649Z,961.48
2019-02-16T11:02:56.646Z,961.46
2019-02-16T11:03:56.612Z,961.47
2019-02-16T11:04:56.932Z,961.48
2019-02-16T11:05:56.636Z,961.46
2019-02-16T11:06:56.564Z,961.46
2019-02-16T11:07:56.577Z,961.44
2019-02-16T11:08:56.551Z,961.47
2019-02-16T11:09:56.537Z,961.45
2019-02-16T11:10:56.541Z,961.38
2019-02-16T11:11:56.555Z,961.39
2019-02-16T11:12:56.552Z,961.36
2019-02-16T11:13:56.509Z,961.37
2019-02-16T11:14:56.482Z,961.36
2019-02-16T11:15:56.482Z,961.32
2019-02-16T11:16:56.517Z,961.32
2019-02-16T11:17:56.447Z,961.31
2019-02-16T11:18:56.540Z,961.36
2019-02-16T11:19:56.434Z,961.39
2019-02-16T11:20:57.221Z,961.36
2019-02-16T11:21:56.427Z,961.44
2019-02-16T11:22:56.401Z,961.43
2019-02-16T11:23:56.416Z,961.39
2019-02-16T11:24:56.401Z,961.35
2019-02-16T11:25:56.386Z,961.30
2019-02-16T11:26:56.357Z,961.29
2019-02-16T11:27:56.333Z,961.27
2019-02-16T11:28:56.314Z,961.27
2019-02-16T11:29:56.322Z,961.24
2019-02-16T11:30:56.335Z,961.25
2019-02-16T11:31:56.328Z,961.20
2019-02-16T11:32:56.301Z,961.22
2019-02-16T11:33:56.286Z,961.20
2019-02-16T11:34:56.261Z,961.26
2019-02-16T11:35:56.269Z,961.20
2019-02-16T11:36:56.238Z,961.21
2019-02-16T11:37:56.244Z,961.20
2019-02-16T11:38:56.226Z,961.19
2019-02-16T11:39:56.249Z,961.21
2019-02-16T11:40:56.215Z,961.18
2019-02-16T11:41:56.570Z,961.24
2019-02-16T11:42:56.216Z,961.17
2019-02-16T11:43:56.202Z,961.20
2019-02-16T11:44:56.286Z,961.22
2019-02-16T11:45:56.143Z,961.13
2019-02-16T11:46:56.117Z,961.15
2019-02-16T11:47:56.139Z,961.19
2019-02-16T11:48:56.098Z,961.11
2019-02-16T11:49:56.086Z,961.18
2019-02-16T11:50:56.100Z,961.13
2019-02-16T11:51:56.064Z,961.11
2019-02-16T11:52:56.079Z,961.14
2019-02-16T11:53:56.047Z,961.15
2019-02-16T11:54:56.029Z,961.15
2019-02-16T11:55:56.043Z,961.11
2019-02-16T11:56:56.007Z,961.11
2019-02-16T11:57:55.999Z,961.11
2019-02-16T11:58:56.004Z,961.13
2019-02-16T11:59:55.979Z,961.10
2019-02-16T12:00:55.959Z,961.12
2019-02-16T12:01:55.966Z,961.14
2019-02-16T12:02:55.989Z,961.16
2019-02-16T12:03:55.962Z,961.17
2019-02-16T12:04:55.921Z,961.16
2019-02-16T12:05:55.906Z,961.15
2019-02-16T12:06:55.904Z,961.15
2019-02-16T12:07:55.913Z,961.11
2019-02-16T12:08:55.888Z,961.17
2019-02-16T12:09:55.886Z,961.15
2019-02-16T12:10:55.849Z,961.11
2019-02-16T12:11:55.842Z,961.09
2019-02-16T12:12:55.826Z,961.07
2019-02-16T12:13:55.847Z,961.07
2019-02-16T12:14:55.809Z,960.97
2019-02-16T12:15:55.804Z,960.96
2019-02-16T12:16:55.820Z,960.96
2019-02-16T12:17:55.774Z,960.96
2019-02-16T12:18:55.763Z,960.98
2019-02-16T12:19:55.766Z,960.96
2019-02-16T12:20:55.761Z,960.94
2019-02-16T12:21:55.729Z,960.93
2019-02-16T12:22:55.711Z,960.91
2019-02-16T12:23:55.697Z,960.93
2019-02-16T12:25:04.965Z,960.92
2019-02-16T12:25:56.724Z,960.98
2019-02-16T12:26:55.672Z,960.94
2019-02-16T12:27:55.659Z,960.93